createdAt,value
2022-11-02T00:01:01.234Z,100608.75
2022-11-02T00:03:28.677Z,100609.56
2022-11-02T00:05:55.265Z,100602.34
2022-11-02T00:08:21.816Z,100606.75
2022-11-02T00:10:48.329Z,100612.03
2022-11-02T00:13:14.803Z,100623.06
2022-11-02T00:15:41.395Z,100608.28
2022-11-02T00:18:11.192Z,100608.59
2022-11-02T00:20:40.006Z,100612.75
2022-11-02T00:23:10.752Z,100613.03
2022-11-02T00:25:43.409Z,100628.06
2022-11-02T00:28:10.503Z,100629.75
2022-11-02T00:30:38.125Z,100630.41
2022-11-02T00:33:04.782Z,100622.63
2022-11-02T00:35:31.709Z,100624.31
2022-11-02T00:37:58.209Z,100625.41
2022-11-02T00:40:24.716Z,100629.69
2022-11-02T00:42:51.182Z,100623.56
2022-11-02T00:45:18.529Z,100631.66
2022-11-02T00:47:45.024Z,100631.16
2022-11-02T00:50:11.811Z,100615.97
2022-11-02T00:52:42.429Z,100611.97
2022-11-02T00:55:11.049Z,100612.34
2022-11-02T00:57:39.597Z,100630.50
2022-11-02T01:00:07.710Z,100638.13
2022-11-02T01:02:34.569Z,100629.22
2022-11-02T01:05:02.919Z,100626.53
2022-11-02T01:07:29.447Z,100627.00
2022-11-02T01:09:56.060Z,100613.25
2022-11-02T01:12:23.036Z,100626.31
2022-11-02T01:14:50.158Z,100608.25
2022-11-02T01:17:17.513Z,100617.88
2022-11-02T01:19:44.001Z,100629.38
2022-11-02T01:22:10.490Z,100630.53
2022-11-02T01:24:37.024Z,100643.06
2022-11-02T01:27:03.869Z,100655.22
2022-11-02T01:29:30.367Z,100651.28
2022-11-02T01:31:56.852Z,100638.59
2022-11-02T01:34:23.333Z,100636.94
2022-11-02T01:36:49.815Z,100630.03
2022-11-02T01:39:16.480Z,100633.56
2022-11-02T01:41:43.249Z,100619.97
2022-11-02T01:44:30.327Z,100630.50
2022-11-02T01:47:18.463Z,100639.28
2022-11-02T01:49:48.528Z,100635.88
2022-11-02T01:52:20.234Z,100634.13
2022-11-02T01:54:56.340Z,100642.91
2022-11-02T01:57:23.332Z,100644.31
2022-11-02T02:00:14.429Z,100619.28
2022-11-02T02:03:04.291Z,100611.41
2022-11-02T02:05:34.007Z,100627.16
2022-11-02T02:08:03.617Z,100621.69
2022-11-02T02:10:30.464Z,100609.03
2022-11-02T02:12:57.999Z,100629.69
2022-11-02T02:15:28.298Z,100622.53
2022-11-02T02:18:20.710Z,100634.88
2022-11-02T02:21:01.225Z,100615.06
2022-11-02T02:24:07.224Z,100620.66
2022-11-02T02:26:51.951Z,100606.16
2022-11-02T02:29:21.591Z,100613.97
2022-11-02T02:31:59.358Z,100612.78
2022-11-02T02:34:49.374Z,100622.84
2022-11-02T02:37:57.584Z,100613.31
2022-11-02T02:40:34.736Z,100626.56
2022-11-02T02:43:06.221Z,100620.09
2022-11-02T02:45:47.130Z,100612.66
2022-11-02T02:48:22.022Z,100617.69
2022-11-02T02:51:04.363Z,100627.16
2022-11-02T02:53:38.428Z,100620.03
2022-11-02T02:56:07.533Z,100640.09
2022-11-02T02:58:58.937Z,100633.25
2022-11-02T03:01:27.056Z,100635.44
2022-11-02T03:03:53.821Z,100616.13
2022-11-02T03:06:29.401Z,100605.94
2022-11-02T03:09:07.921Z,100605.72
2022-11-02T03:11:45.662Z,100605.97
2022-11-02T03:14:31.288Z,100623.28
2022-11-02T03:17:15.540Z,100637.78
2022-11-02T03:19:53.382Z,100625.59
2022-11-02T03:22:27.020Z,100611.28
2022-11-02T03:25:00.805Z,100601.44
2022-11-02T03:27:41.237Z,100621.22
2022-11-02T03:30:15.942Z,100615.63
2022-11-02T03:33:22.192Z,100607.44
2022-11-02T03:36:00.679Z,100616.50
2022-11-02T03:39:06.700Z,100612.66
2022-11-02T03:41:35.968Z,100616.13
2022-11-02T03:44:13.299Z,100622.75
2022-11-02T03:46:43.215Z,100620.47
2022-11-02T03:49:17.224Z,100632.41
2022-11-02T03:51:45.976Z,100634.41
2022-11-02T03:54:22.063Z,100639.31
2022-11-02T03:56:51.466Z,100639.44
2022-11-02T03:59:18.022Z,100637.31
2022-11-02T04:01:47.738Z,100644.97
2022-11-02T04:04:14.852Z,100643.69
2022-11-02T04:06:42.957Z,100629.34
2022-11-02T04:09:10.067Z,100601.66
2022-11-02T04:11:55.667Z,100595.91
2022-11-02T04:14:41.336Z,100607.44
2022-11-02T04:20:00.569Z,100628.13
2022-11-02T04:22:45.601Z,100637.88
2022-11-02T04:25:18.399Z,100628.25
2022-11-02T04:27:47.490Z,100609.25
2022-11-02T04:30:20.021Z,100609.94
2022-11-02T04:33:07.342Z,100629.56
2022-11-02T04:35:35.568Z,100628.22
2022-11-02T04:38:20.548Z,100620.31
2022-11-02T04:40:47.153Z,100632.75
2022-11-02T04:43:13.714Z,100633.56
2022-11-02T04:45:40.300Z,100628.63
2022-11-02T04:48:08.363Z,100645.81
2022-11-02T04:50:36.641Z,100646.06
2022-11-02T04:53:05.873Z,100661.28
2022-11-02T04:55:32.497Z,100654.50
2022-11-02T04:57:58.991Z,100654.78
2022-11-02T05:00:25.497Z,100653.25
2022-11-02T05:02:52.366Z,100662.59
2022-11-02T05:05:19.029Z,100670.88
2022-11-02T05:07:45.584Z,100665.53
2022-11-02T05:10:12.153Z,100667.47
2022-11-02T05:12:38.700Z,100667.34
2022-11-02T05:15:06.174Z,100667.34
2022-11-02T05:17:32.739Z,100671.88
2022-11-02T05:19:59.203Z,100681.50
2022-11-02T05:22:25.765Z,100679.78
2022-11-02T05:24:52.254Z,100679.81
2022-11-02T05:27:18.714Z,100689.19
2022-11-02T05:29:45.197Z,100688.41
2022-11-02T05:32:11.683Z,100693.50
2022-11-02T05:34:38.879Z,100698.50
2022-11-02T05:37:05.366Z,100694.84
2022-11-02T05:39:31.928Z,100671.31
2022-11-02T05:41:58.455Z,100639.50
2022-11-02T05:44:25.046Z,100646.19
2022-11-02T05:46:51.532Z,100640.91
2022-11-02T05:49:18.089Z,100623.00
2022-11-02T05:51:44.580Z,100608.69
2022-11-02T05:54:11.112Z,100609.53
2022-11-02T05:56:37.653Z,100636.31
2022-11-02T05:59:04.231Z,100625.75
2022-11-02T06:01:30.766Z,100613.94
2022-11-02T06:03:57.264Z,100632.09
2022-11-02T06:06:24.124Z,100641.13
2022-11-02T06:08:50.681Z,100638.22
2022-11-02T06:11:17.354Z,100626.03
2022-11-02T06:13:43.927Z,100642.47
2022-11-02T06:16:12.481Z,100653.41
2022-11-02T06:18:39.447Z,100641.09
2022-11-02T06:21:06.909Z,100648.19
2022-11-02T06:23:33.839Z,100647.25
2022-11-02T06:26:01.447Z,100651.06
2022-11-02T06:28:28.845Z,100657.88
2022-11-02T06:30:55.760Z,100656.50
2022-11-02T06:33:22.388Z,100663.16
2022-11-02T06:35:53.805Z,100668.28
2022-11-02T06:38:20.522Z,100651.72
2022-11-02T06:41:16.524Z,100641.03
2022-11-02T06:43:43.041Z,100644.16
2022-11-02T06:46:09.520Z,100636.38
2022-11-02T06:48:36.093Z,100630.41
2022-11-02T06:51:04.074Z,100623.56
2022-11-02T06:53:30.971Z,100606.41
2022-11-02T06:55:58.518Z,100613.41
2022-11-02T06:58:25.414Z,100624.03
2022-11-02T07:00:58.537Z,100634.28
2022-11-02T07:03:25.445Z,100628.88
2022-11-02T07:05:52.964Z,100629.34
2022-11-02T07:08:20.411Z,100622.09
2022-11-02T07:10:47.154Z,100625.78
2022-11-02T07:13:14.463Z,100640.91
2022-11-02T07:15:41.122Z,100641.50
2022-11-02T07:18:08.731Z,100647.66
2022-11-02T07:20:35.855Z,100650.31
2022-11-02T07:23:04.297Z,100671.72
2022-11-02T07:25:32.453Z,100675.16
2022-11-02T07:28:02.849Z,100680.09
2022-11-02T07:30:31.566Z,100672.06
2022-11-02T07:32:58.222Z,100666.84
2022-11-02T07:35:25.363Z,100658.78
2022-11-02T07:37:56.503Z,100659.41
2022-11-02T07:40:22.993Z,100668.22
2022-11-02T07:42:49.514Z,100691.56
2022-11-02T07:45:16.049Z,100695.88
2022-11-02T07:47:46.493Z,100691.63
2022-11-02T07:50:14.608Z,100709.16
2022-11-02T07:52:52.317Z,100712.22
2022-11-02T07:55:21.469Z,100699.34
2022-11-02T07:57:59.521Z,100681.13
2022-11-02T08:00:29.143Z,100683.75
2022-11-02T08:02:57.714Z,100691.78
2022-11-02T08:05:25.594Z,100700.97
2022-11-02T08:08:09.015Z,100704.66
2022-11-02T08:10:39.180Z,100713.88
2022-11-02T08:13:12.309Z,100726.47
2022-11-02T08:15:38.966Z,100728.50
2022-11-02T08:18:07.205Z,100724.09
2022-11-02T08:20:36.103Z,100729.41
2022-11-02T08:23:03.263Z,100736.75
2022-11-02T08:25:30.105Z,100747.44
2022-11-02T08:27:58.940Z,100751.88
2022-11-02T08:30:26.867Z,100752.16
2022-11-02T08:32:56.794Z,100759.53
2022-11-02T08:35:23.860Z,100757.56
2022-11-02T08:37:55.064Z,100750.56
2022-11-02T08:40:21.556Z,100759.22
2022-11-02T08:42:48.768Z,100760.66
2022-11-02T08:45:15.567Z,100763.09
2022-11-02T08:47:42.606Z,100757.28
2022-11-02T08:50:10.442Z,100764.09
2022-11-02T08:52:40.584Z,100778.25
2022-11-02T08:55:07.917Z,100776.31
2022-11-02T08:57:45.463Z,100779.09
2022-11-02T09:00:13.046Z,100769.94
2022-11-02T09:02:39.574Z,100765.19
2022-11-02T09:05:06.446Z,100766.28
2022-11-02T09:07:32.992Z,100773.69
2022-11-02T09:09:59.478Z,100777.22
2022-11-02T09:12:26.040Z,100774.06
2022-11-02T09:14:52.540Z,100769.50
2022-11-02T09:17:21.032Z,100766.50
2022-11-02T09:19:47.511Z,100755.50
2022-11-02T09:22:14.096Z,100759.97
2022-11-02T09:24:40.588Z,100760.19
2022-11-02T09:27:07.192Z,100756.06
2022-11-02T09:29:34.031Z,100744.06
2022-11-02T09:32:00.547Z,100758.72
2022-11-02T09:34:27.188Z,100748.53
2022-11-02T09:36:53.919Z,100746.09
2022-11-02T09:39:23.764Z,100753.78
2022-11-02T09:42:19.519Z,100753.00
2022-11-02T09:45:01.629Z,100756.31
2022-11-02T09:50:23.384Z,100747.16
2022-11-02T09:52:56.171Z,100751.22
2022-11-02T09:55:36.530Z,100746.22
2022-11-02T09:58:32.873Z,100745.41
2022-11-02T10:01:24.514Z,100748.03
2022-11-02T10:04:06.189Z,100738.44
2022-11-02T10:06:36.614Z,100745.50
2022-11-02T10:09:12.074Z,100733.75
2022-11-02T10:11:41.501Z,100739.63
2022-11-02T10:14:27.342Z,100735.59
2022-11-02T10:17:02.954Z,100735.03
2022-11-02T10:19:30.737Z,100729.75
2022-11-02T10:21:58.304Z,100726.28
2022-11-02T10:24:40.305Z,100713.56
2022-11-02T10:27:15.447Z,100719.47
2022-11-02T10:30:03.274Z,100725.56
2022-11-02T10:32:31.953Z,100714.41
2022-11-02T10:35:25.254Z,100708.34
2022-11-02T10:38:14.946Z,100713.81
2022-11-02T10:41:09.679Z,100712.28
2022-11-02T10:43:42.168Z,100709.03
2022-11-02T10:46:20.795Z,100704.78
2022-11-02T10:49:05.728Z,100702.31
2022-11-02T10:51:32.628Z,100697.88
2022-11-02T10:53:59.266Z,100691.84
2022-11-02T10:56:33.196Z,100689.16
2022-11-02T10:59:02.398Z,100691.19
2022-11-02T11:01:31.254Z,100691.09
2022-11-02T11:04:06.853Z,100683.50
2022-11-02T11:06:40.851Z,100683.63
2022-11-02T11:09:17.619Z,100676.63
2022-11-02T11:11:59.501Z,100676.75
2022-11-02T11:20:36.311Z,100656.41
2022-11-02T11:23:18.062Z,100654.81
2022-11-02T11:25:56.049Z,100645.06
2022-11-02T11:28:27.591Z,100640.50
2022-11-02T11:31:08.354Z,100628.72
2022-11-02T11:33:44.878Z,100629.69
2022-11-02T11:36:20.484Z,100622.03
2022-11-02T11:38:49.682Z,100620.28
2022-11-02T11:41:17.065Z,100609.06
2022-11-02T11:43:45.593Z,100609.28
2022-11-02T11:46:13.952Z,100600.53
2022-11-02T11:48:49.562Z,100596.16
2022-11-02T11:51:29.529Z,100581.53
2022-11-02T11:54:29.369Z,100580.97
2022-11-02T11:57:20.204Z,100586.13
2022-11-02T11:59:48.816Z,100583.56
2022-11-02T12:02:25.090Z,100573.97
2022-11-02T12:04:58.427Z,100566.19
2022-11-02T12:07:28.458Z,100561.94
2022-11-02T12:10:06.998Z,100554.38
2022-11-02T12:12:39.685Z,100552.66
2022-11-02T12:15:37.253Z,100542.28
2022-11-02T12:18:15.945Z,100546.59
2022-11-02T12:21:01.093Z,100536.19
2022-11-02T12:23:51.829Z,100533.72
2022-11-02T12:26:24.334Z,100532.84
2022-11-02T12:28:59.324Z,100525.03
2022-11-02T12:32:00.729Z,100513.94
2022-11-02T12:38:18.495Z,100513.22
2022-11-02T12:41:00.771Z,100505.44
2022-11-02T12:43:45.529Z,100496.72
2022-11-02T12:46:24.067Z,100489.16
2022-11-02T12:49:02.958Z,100485.69
2022-11-02T12:52:04.330Z,100479.69
2022-11-02T12:54:42.718Z,100476.16
2022-11-02T12:57:15.478Z,100477.94
2022-11-02T12:59:44.484Z,100467.50
2022-11-02T13:02:40.182Z,100462.41
2022-11-02T13:05:17.623Z,100457.22
2022-11-02T13:07:44.154Z,100457.31
2022-11-02T13:10:16.829Z,100447.91
2022-11-02T13:12:44.695Z,100446.16
2022-11-02T13:15:16.968Z,100436.59
2022-11-02T13:17:52.772Z,100437.50
2022-11-02T13:20:27.612Z,100430.63
2022-11-02T13:23:00.775Z,100420.22
2022-11-02T13:25:38.611Z,100425.50
2022-11-02T13:28:44.731Z,100419.47
2022-11-02T13:31:28.202Z,100416.06
2022-11-02T13:33:56.823Z,100408.28
2022-11-02T13:36:23.463Z,100405.72
2022-11-02T13:39:04.605Z,100400.50
2022-11-02T13:41:50.081Z,100399.66
2022-11-02T13:44:25.660Z,100390.16
2022-11-02T13:47:26.866Z,100397.13
2022-11-02T13:49:56.373Z,100393.66
2022-11-02T13:52:38.375Z,100385.03
2022-11-02T13:55:08.931Z,100392.81
2022-11-02T13:57:42.444Z,100381.56
2022-11-02T14:00:23.958Z,100372.88
2022-11-02T14:03:12.112Z,100372.00
2022-11-02T14:05:49.465Z,100372.91
2022-11-02T14:08:36.469Z,100366.81
2022-11-02T14:11:37.039Z,100364.25
2022-11-02T14:14:04.242Z,100360.81
2022-11-02T14:16:43.754Z,100357.41
2022-11-02T14:19:19.382Z,100349.59
2022-11-02T14:21:50.028Z,100353.03
2022-11-02T14:24:35.092Z,100350.47
2022-11-02T14:27:11.713Z,100352.19
2022-11-02T14:29:47.184Z,100358.25
2022-11-02T14:32:30.917Z,100356.56
2022-11-02T14:35:30.913Z,100361.75
2022-11-02T14:38:18.777Z,100361.69
2022-11-02T14:40:51.351Z,100360.00
2022-11-02T14:43:42.853Z,100361.69
2022-11-02T14:46:12.425Z,100353.06
2022-11-02T14:48:52.422Z,100349.59
2022-11-02T14:51:34.165Z,100353.94
2022-11-02T14:54:07.328Z,100340.97
2022-11-02T14:56:54.499Z,100347.88
2022-11-02T14:59:32.612Z,100345.28
2022-11-02T15:02:04.409Z,100339.22
2022-11-02T15:04:34.208Z,100337.44
2022-11-02T15:07:03.327Z,100334.00
2022-11-02T15:09:55.983Z,100326.25
2022-11-02T15:12:36.024Z,100325.34
2022-11-02T15:15:35.697Z,100325.34
2022-11-02T15:18:31.425Z,100326.22
2022-11-02T15:21:13.005Z,100314.06
2022-11-02T15:23:47.783Z,100316.66
2022-11-02T15:26:27.778Z,100310.59
2022-11-02T15:28:58.634Z,100309.69
2022-11-02T15:31:26.941Z,100303.63
2022-11-02T15:34:04.326Z,100301.03
2022-11-02T15:36:38.005Z,100305.34
2022-11-02T15:39:10.610Z,100303.56
2022-11-02T15:42:15.482Z,100309.53
2022-11-02T15:45:14.168Z,100302.59
2022-11-02T15:48:10.250Z,100299.94
2022-11-02T15:50:39.876Z,100300.03
2022-11-02T15:53:23.246Z,100308.53
2022-11-02T15:56:11.932Z,100307.75
2022-11-02T15:59:09.167Z,100295.66
2022-11-02T16:01:36.731Z,100293.03
2022-11-02T16:04:06.734Z,100293.91
2022-11-02T16:06:39.578Z,100289.59
2022-11-02T16:09:32.928Z,100290.44
2022-11-02T16:12:23.673Z,100292.09
2022-11-02T16:14:53.204Z,100286.03
2022-11-02T16:17:24.069Z,100279.91
2022-11-02T16:19:51.407Z,100287.66
2022-11-02T16:22:24.223Z,100279.88
2022-11-02T16:24:52.144Z,100286.75
2022-11-02T16:27:19.019Z,100282.38
2022-11-02T16:29:45.780Z,100287.53
2022-11-02T16:32:12.647Z,100286.66
2022-11-02T16:34:40.458Z,100279.72
2022-11-02T16:37:10.510Z,100289.22
2022-11-02T16:39:41.813Z,100284.06
2022-11-02T16:42:16.225Z,100284.09
2022-11-02T16:44:43.194Z,100285.75
2022-11-02T16:47:09.745Z,100285.72
2022-11-02T16:49:51.489Z,100281.34
2022-11-02T16:52:34.929Z,100284.72
2022-11-02T16:55:02.135Z,100277.81
2022-11-02T16:57:33.650Z,100276.06
2022-11-02T17:00:09.593Z,100275.13
2022-11-02T17:02:41.316Z,100272.41
2022-11-02T17:05:20.490Z,100268.97
2022-11-02T17:08:09.353Z,100284.47
2022-11-02T17:10:38.332Z,100280.16
2022-11-02T17:13:15.901Z,100278.34
2022-11-02T17:15:52.154Z,100277.41
2022-11-02T17:18:21.774Z,100278.19
2022-11-02T17:20:50.099Z,100291.16
2022-11-02T17:23:35.461Z,100284.38
2022-11-02T17:26:24.126Z,100286.03
2022-11-02T17:29:12.025Z,100285.97
2022-11-02T17:31:41.309Z,100286.72
2022-11-02T17:34:17.640Z,100279.78
2022-11-02T17:36:46.024Z,100279.69
2022-11-02T17:39:14.595Z,100281.44
2022-11-02T17:42:01.177Z,100283.13
2022-11-02T17:44:27.655Z,100282.25
2022-11-02T17:46:55.678Z,100277.94
2022-11-02T17:49:22.277Z,100278.69
2022-11-02T17:51:48.851Z,100283.88
2022-11-02T17:54:15.469Z,100282.97
2022-11-02T17:56:42.050Z,100282.91
2022-11-02T17:59:08.612Z,100281.13
2022-11-02T18:01:35.636Z,100281.09
2022-11-02T18:04:02.310Z,100278.56
2022-11-02T18:06:30.062Z,100267.28
2022-11-02T18:09:11.481Z,100266.38
2022-11-02T18:11:38.049Z,100267.16
2022-11-02T18:14:06.129Z,100271.34
2022-11-02T18:16:32.668Z,100271.34
2022-11-02T18:18:59.216Z,100267.03
2022-11-02T18:21:25.757Z,100267.03
2022-11-02T18:23:52.324Z,100271.28
2022-11-02T18:26:18.819Z,100268.72
2022-11-02T18:28:45.378Z,100269.50
2022-11-02T18:31:11.988Z,100270.31
2022-11-02T18:33:38.535Z,100274.63
2022-11-02T18:36:07.265Z,100272.88
2022-11-02T18:38:33.955Z,100277.16
2022-11-02T18:41:27.403Z,100267.63
2022-11-02T18:44:02.186Z,100266.72
2022-11-02T18:46:31.404Z,100256.34
2022-11-02T18:48:58.136Z,100256.28
2022-11-02T18:51:25.285Z,100249.44
2022-11-02T18:54:01.876Z,100249.47
2022-11-02T18:56:28.968Z,100252.03
2022-11-02T18:58:56.140Z,100241.66
2022-11-02T19:01:25.176Z,100242.47
2022-11-02T19:03:58.706Z,100236.41
2022-11-02T19:06:45.338Z,100228.69
2022-11-02T19:09:23.328Z,100233.09
2022-11-02T19:12:01.428Z,100222.84
2022-11-02T19:14:30.761Z,100229.69
2022-11-02T19:16:57.283Z,100221.09
2022-11-02T19:19:23.881Z,100221.06
2022-11-02T19:21:50.728Z,100219.31
2022-11-02T19:24:17.402Z,100219.31
2022-11-02T19:26:43.983Z,100217.53
2022-11-02T19:29:10.762Z,100215.75
2022-11-02T19:31:38.129Z,100217.53
2022-11-02T19:34:05.224Z,100225.22
2022-11-02T19:36:32.733Z,100209.63
2022-11-02T19:39:02.972Z,100210.47
2022-11-02T19:41:31.260Z,100207.84
2022-11-02T19:43:58.117Z,100201.75
2022-11-02T19:46:26.436Z,100200.13
2022-11-02T19:48:53.974Z,100185.53
2022-11-02T19:51:24.712Z,100191.72
2022-11-02T19:53:54.550Z,100182.28
2022-11-02T19:56:22.909Z,100182.41
2022-11-02T19:58:51.243Z,100187.66
2022-11-02T20:01:29.222Z,100182.41
2022-11-02T20:03:56.642Z,100190.22
2022-11-02T20:06:27.891Z,100188.31
2022-11-02T20:08:56.965Z,100189.19
2022-11-02T20:11:28.403Z,100175.47
2022-11-02T20:13:58.288Z,100178.03
2022-11-02T20:16:25.669Z,100176.44
2022-11-02T20:18:53.143Z,100180.59
2022-11-02T20:21:31.087Z,100164.13
2022-11-02T20:24:01.426Z,100170.94
2022-11-02T20:26:36.120Z,100177.91
2022-11-02T20:29:04.801Z,100182.97
2022-11-02T20:31:33.986Z,100179.56
2022-11-02T20:34:01.587Z,100177.72
2022-11-02T20:36:28.447Z,100178.53
2022-11-02T20:38:56.286Z,100190.56
2022-11-02T20:41:24.327Z,100190.56
2022-11-02T20:43:53.742Z,100187.81
2022-11-02T20:46:36.987Z,100174.88
2022-11-02T20:49:14.125Z,100168.75
2022-11-02T20:51:48.328Z,100164.50
2022-11-02T20:54:15.092Z,100173.13
2022-11-02T20:56:41.707Z,100168.94
2022-11-02T20:59:08.263Z,100167.25
2022-11-02T21:01:35.268Z,100163.03
2022-11-02T21:04:02.334Z,100168.84
2022-11-02T21:06:28.856Z,100162.84
2022-11-02T21:08:55.562Z,100167.09
2022-11-02T21:11:40.640Z,100155.97
2022-11-02T21:14:07.228Z,100152.59
2022-11-02T21:16:33.964Z,100157.75
2022-11-02T21:19:00.624Z,100155.91
2022-11-02T21:21:27.238Z,100154.09
2022-11-02T21:23:55.505Z,100147.94
2022-11-02T21:26:22.006Z,100151.44
2022-11-02T21:28:48.540Z,100155.63
2022-11-02T21:31:19.572Z,100153.03
2022-11-02T21:33:47.752Z,100149.59
2022-11-02T21:36:15.996Z,100144.41
2022-11-02T21:38:45.262Z,100137.47
2022-11-02T21:41:22.457Z,100127.94
2022-11-02T21:43:51.930Z,100125.41
2022-11-02T21:46:19.749Z,100122.00
2022-11-02T21:48:46.924Z,100123.72
2022-11-02T21:51:19.142Z,100120.97
2022-11-02T21:53:46.712Z,100109.63
2022-11-02T21:56:16.808Z,100115.63
2022-11-02T21:58:46.314Z,100114.75
2022-11-02T22:01:40.370Z,100107.06
2022-11-02T22:04:07.897Z,100109.47
2022-11-02T22:06:37.438Z,100112.94
2022-11-02T22:09:05.927Z,100117.97
2022-11-02T22:11:32.521Z,100114.41
2022-11-02T22:14:00.516Z,100117.91
2022-11-02T22:16:38.265Z,100116.09
2022-11-02T22:19:12.937Z,100115.16
2022-11-02T22:21:46.098Z,100107.34
2022-11-02T22:24:13.081Z,100101.22
2022-11-02T22:26:40.045Z,100104.84
2022-11-02T22:29:07.567Z,100098.78
2022-11-02T22:31:36.742Z,100095.34
2022-11-02T22:34:04.682Z,100099.56
2022-11-02T22:36:33.237Z,100090.78
2022-11-02T22:39:01.473Z,100097.66
2022-11-02T22:41:32.108Z,100086.47
2022-11-02T22:44:04.012Z,100075.28
2022-11-02T22:46:32.844Z,100075.22
2022-11-02T22:49:00.334Z,100068.34
2022-11-02T22:51:28.553Z,100070.88
2022-11-02T22:53:55.763Z,100059.88
2022-11-02T22:56:23.476Z,100057.16
2022-11-02T22:58:50.604Z,100052.06
2022-11-02T23:01:21.876Z,100050.50
2022-11-02T23:03:49.247Z,100042.78
2022-11-02T23:06:18.538Z,100046.94
2022-11-02T23:08:45.977Z,100046.03
2022-11-02T23:11:23.493Z,100040.84
2022-11-02T23:13:53.905Z,100038.34
2022-11-02T23:16:22.868Z,100029.66
2022-11-02T23:19:14.058Z,100024.41
2022-11-02T23:21:44.397Z,100011.44
2022-11-02T23:24:32.000Z,100014.13
2022-11-02T23:26:58.532Z,100016.00
2022-11-02T23:29:43.663Z,100005.53
2022-11-02T23:32:28.468Z,99998.63
2022-11-02T23:35:14.668Z,99995.16
2022-11-02T23:37:41.925Z,99996.91
2022-11-02T23:40:09.062Z,100007.59
2022-11-02T23:42:35.776Z,100006.13
2022-11-02T23:45:02.298Z,100002.72
2022-11-02T23:47:48.299Z,99998.44
2022-11-02T23:50:36.388Z,99986.53
2022-11-02T23:53:27.292Z,99985.63
2022-11-02T23:56:13.696Z,99978.69
2022-11-02T23:58:40.198Z,99983.88
